EDKV weather

Flugplatz Dahlemer Binz
Dahlheim, Rhineland-Palatinate, Germany

Public forecast

Using degrees Celsius for public forecast. Weather courtesy of forecast.io.

METAR (pilot weather report)

Closest report is Elsenborn Air Base, 14.0 nm (26.0 km) WNW. Retrieved 2019/04/20 03:25 UTC (26 minutes ago):

EBLB 200325Z AUTO VRB02KT 9999 NCD 01/M01 Q1029 BLU

TAF (pilot weather forecast)

Forecast is more than 12 hours old.

Closest forecast is Elsenborn Air Base, 14.0 nm (26.0 km) WNW. Retrieved 2012/06/26 19:39 UTC (7 years ago):

TAF EBLB 261541Z 2619/2707 24005KT 9999 SCT020 BECMG 2623/2701 SCT010 SCT020 BECMG 2703/2705 22009KT 5000 BR SCT004 SCT007 BKN015 PROB40 TEMPO 2703/2707 2000 -SHRA SCT002 BKN003 BKN010